sensor_id;sensor_type;location;lat;lon;timestamp;pressure;altitude;pressure_sealevel;temperature;humidity
32456;BME280;18912;43.270;27.942;2022-12-04T00:01:22;99451.72;;;9.02;61.50
32456;BME280;18912;43.270;27.942;2022-12-04T00:03:57;99447.56;;;9.16;61.11
32456;BME280;18912;43.270;27.942;2022-12-04T00:06:23;99444.72;;;9.17;60.94
32456;BME280;18912;43.270;27.942;2022-12-04T00:08:49;99445.38;;;9.11;60.78
32456;BME280;18912;43.270;27.942;2022-12-04T00:11:16;99447.69;;;8.90;61.54
32456;BME280;18912;43.270;27.942;2022-12-04T00:13:42;99445.97;;;8.89;61.30
32456;BME280;18912;43.270;27.942;2022-12-04T00:16:11;99443.97;;;8.91;61.70
32456;BME280;18912;43.270;27.942;2022-12-04T00:18:37;99443.00;;;9.00;61.61
32456;BME280;18912;43.270;27.942;2022-12-04T00:21:07;99448.72;;;9.05;61.50
32456;BME280;18912;43.270;27.942;2022-12-04T00:23:34;99450.41;;;9.14;61.29
32456;BME280;18912;43.270;27.942;2022-12-04T00:26:08;99450.09;;;9.09;61.31
32456;BME280;18912;43.270;27.942;2022-12-04T00:28:35;99454.59;;;9.01;61.76
32456;BME280;18912;43.270;27.942;2022-12-04T00:31:04;99448.69;;;8.97;61.96
32456;BME280;18912;43.270;27.942;2022-12-04T00:33:30;99458.97;;;8.94;62.08
32456;BME280;18912;43.270;27.942;2022-12-04T00:35:56;99455.13;;;9.04;62.19
32456;BME280;18912;43.270;27.942;2022-12-04T00:38:22;99461.03;;;9.08;62.21
32456;BME280;18912;43.270;27.942;2022-12-04T00:40:51;99463.03;;;8.98;62.73
32456;BME280;18912;43.270;27.942;2022-12-04T00:43:17;99452.44;;;9.12;62.60
32456;BME280;18912;43.270;27.942;2022-12-04T00:45:43;99457.13;;;9.02;62.60
32456;BME280;18912;43.270;27.942;2022-12-04T00:48:08;99460.19;;;9.07;62.62
32456;BME280;18912;43.270;27.942;2022-12-04T00:50:34;99457.63;;;8.90;62.96
32456;BME280;18912;43.270;27.942;2022-12-04T00:53:00;99457.44;;;8.83;62.57
32456;BME280;18912;43.270;27.942;2022-12-04T00:55:25;99457.13;;;8.94;62.47
32456;BME280;18912;43.270;27.942;2022-12-04T00:57:51;99465.22;;;9.02;62.55
32456;BME280;18912;43.270;27.942;2022-12-04T01:00:16;99460.13;;;8.83;62.74
32456;BME280;18912;43.270;27.942;2022-12-04T01:02:43;99451.09;;;9.00;62.75
32456;BME280;18912;43.270;27.942;2022-12-04T01:05:08;99454.28;;;9.04;62.55
32456;BME280;18912;43.270;27.942;2022-12-04T01:07:35;99457.53;;;9.15;62.38
32456;BME280;18912;43.270;27.942;2022-12-04T01:10:00;99459.22;;;9.24;62.49
32456;BME280;18912;43.270;27.942;2022-12-04T01:12:26;99459.22;;;9.32;62.65
32456;BME280;18912;43.270;27.942;2022-12-04T01:14:51;99468.00;;;9.42;62.62
32456;BME280;18912;43.270;27.942;2022-12-04T01:17:17;99461.59;;;9.43;62.41
32456;BME280;18912;43.270;27.942;2022-12-04T01:19:42;99465.31;;;9.51;62.34
32456;BME280;18912;43.270;27.942;2022-12-04T01:22:08;99456.19;;;9.43;62.85
32456;BME280;18912;43.270;27.942;2022-12-04T01:24:34;99458.88;;;9.35;63.54
32456;BME280;18912;43.270;27.942;2022-12-04T01:26:59;99467.84;;;9.36;63.60
32456;BME280;18912;43.270;27.942;2022-12-04T01:29:25;99459.56;;;9.54;63.07
32456;BME280;18912;43.270;27.942;2022-12-04T01:31:50;99458.34;;;9.16;63.53
32456;BME280;18912;43.270;27.942;2022-12-04T01:34:16;99465.47;;;9.49;63.28
32456;BME280;18912;43.270;27.942;2022-12-04T01:36:41;99452.16;;;9.48;63.00
32456;BME280;18912;43.270;27.942;2022-12-04T01:39:07;99464.78;;;9.39;63.04
32456;BME280;18912;43.270;27.942;2022-12-04T01:41:32;99462.59;;;9.42;62.61
32456;BME280;18912;43.270;27.942;2022-12-04T01:44:16;99462.25;;;9.37;62.95
32456;BME280;18912;43.270;27.942;2022-12-04T01:46:49;99455.66;;;9.24;63.13
32456;BME280;18912;43.270;27.942;2022-12-04T01:49:42;99451.44;;;9.21;62.80
32456;BME280;18912;43.270;27.942;2022-12-04T01:52:21;99448.41;;;9.16;63.08
32456;BME280;18912;43.270;27.942;2022-12-04T01:54:50;99445.38;;;9.27;62.89
32456;BME280;18912;43.270;27.942;2022-12-04T01:57:20;99441.66;;;9.20;63.15
32456;BME280;18912;43.270;27.942;2022-12-04T01:59:59;99447.56;;;9.08;63.23
32456;BME280;18912;43.270;27.942;2022-12-04T02:02:33;99450.72;;;8.95;63.78
32456;BME280;18912;43.270;27.942;2022-12-04T02:04:59;99435.41;;;9.12;63.55
32456;BME280;18912;43.270;27.942;2022-12-04T02:07:26;99440.78;;;9.12;63.51
32456;BME280;18912;43.270;27.942;2022-12-04T02:09:52;99443.19;;;9.23;63.61
32456;BME280;18912;43.270;27.942;2022-12-04T02:18:08;99443.00;;;9.00;64.05
32456;BME280;18912;43.270;27.942;2022-12-04T02:20:40;99438.09;;;9.12;63.63
32456;BME280;18912;43.270;27.942;2022-12-04T02:31:04;99442.19;;;9.32;62.94
32456;BME280;18912;43.270;27.942;2022-12-04T02:33:46;99447.75;;;9.22;63.57
32456;BME280;18912;43.270;27.942;2022-12-04T02:36:18;99448.41;;;9.40;63.03
32456;BME280;18912;43.270;27.942;2022-12-04T02:39:10;99466.13;;;9.19;63.71
32456;BME280;18912;43.270;27.942;2022-12-04T02:41:45;99455.50;;;9.33;63.14
32456;BME280;18912;43.270;27.942;2022-12-04T02:44:21;99450.13;;;9.33;63.38
32456;BME280;18912;43.270;27.942;2022-12-04T02:46:51;99447.91;;;9.37;63.38
32456;BME280;18912;43.270;27.942;2022-12-04T02:49:24;99449.78;;;9.53;62.87
32456;BME280;18912;43.270;27.942;2022-12-04T02:51:54;99453.16;;;9.55;62.92
32456;BME280;18912;43.270;27.942;2022-12-04T02:54:29;99454.34;;;9.68;62.41
32456;BME280;18912;43.270;27.942;2022-12-04T02:56:57;99456.69;;;9.63;62.52
32456;BME280;18912;43.270;27.942;2022-12-04T02:59:36;99448.09;;;9.68;62.38
32456;BME280;18912;43.270;27.942;2022-12-04T03:02:12;99445.72;;;9.40;63.16
32456;BME280;18912;43.270;27.942;2022-12-04T03:04:41;99450.81;;;9.52;63.05
32456;BME280;18912;43.270;27.942;2022-12-04T03:07:14;99442.34;;;9.79;62.20
32456;BME280;18912;43.270;27.942;2022-12-04T03:09:51;99438.16;;;9.76;62.02
32456;BME280;18912;43.270;27.942;2022-12-04T03:12:43;99447.94;;;9.53;62.47
32456;BME280;18912;43.270;27.942;2022-12-04T03:15:22;99449.94;;;9.43;62.84
32456;BME280;18912;43.270;27.942;2022-12-04T03:18:06;99445.41;;;9.76;61.96
32456;BME280;18912;43.270;27.942;2022-12-04T03:20:35;99445.72;;;9.81;61.50
32456;BME280;18912;43.270;27.942;2022-12-04T03:23:34;99445.41;;;9.84;61.66
32456;BME280;18912;43.270;27.942;2022-12-04T03:26:06;99456.16;;;9.92;61.55
32456;BME280;18912;43.270;27.942;2022-12-04T03:31:07;99449.28;;;9.73;62.26
32456;BME280;18912;43.270;27.942;2022-12-04T03:33:39;99441.34;;;9.80;62.12
32456;BME280;18912;43.270;27.942;2022-12-04T03:38:46;99445.69;;;10.05;61.48
32456;BME280;18912;43.270;27.942;2022-12-04T03:43:57;99452.28;;;10.02;61.54
32456;BME280;18912;43.270;27.942;2022-12-04T03:46:38;99441.97;;;10.06;61.44
32456;BME280;18912;43.270;27.942;2022-12-04T03:49:22;99446.91;;;9.86;61.85
32456;BME280;18912;43.270;27.942;2022-12-04T03:51:57;99446.41;;;9.99;61.58
32456;BME280;18912;43.270;27.942;2022-12-04T03:54:33;99444.69;;;10.06;61.47
32456;BME280;18912;43.270;27.942;2022-12-04T03:57:04;99452.13;;;10.12;61.50
32456;BME280;18912;43.270;27.942;2022-12-04T03:59:39;99445.19;;;10.17;61.55
32456;BME280;18912;43.270;27.942;2022-12-04T04:02:09;99450.44;;;10.11;61.70
32456;BME280;18912;43.270;27.942;2022-12-04T04:04:39;99450.75;;;10.00;62.38
32456;BME280;18912;43.270;27.942;2022-12-04T04:09:46;99457.69;;;9.86;62.12
32456;BME280;18912;43.270;27.942;2022-12-04T04:12:19;99450.25;;;9.96;62.10
32456;BME280;18912;43.270;27.942;2022-12-04T04:15:02;99455.50;;;9.90;62.25
32456;BME280;18912;43.270;27.942;2022-12-04T04:17:50;99450.59;;;10.01;62.11
32456;BME280;18912;43.270;27.942;2022-12-04T04:20:51;99445.34;;;10.08;62.16
32456;BME280;18912;43.270;27.942;2022-12-04T04:23:41;99458.88;;;10.16;62.08
32456;BME280;18912;43.270;27.942;2022-12-04T04:26:26;99449.63;;;10.10;62.41
32456;BME280;18912;43.270;27.942;2022-12-04T04:28:54;99460.56;;;10.17;62.33
32456;BME280;18912;43.270;27.942;2022-12-04T04:37:05;99463.72;;;10.37;62.01
32456;BME280;18912;43.270;27.942;2022-12-04T04:39:44;99465.75;;;10.34;62.08
32456;BME280;18912;43.270;27.942;2022-12-04T04:42:47;99476.38;;;10.36;62.18
32456;BME280;18912;43.270;27.942;2022-12-04T04:45:25;99477.38;;;10.43;62.14
32456;BME280;18912;43.270;27.942;2022-12-04T04:47:57;99483.78;;;10.50;61.77
32456;BME280;18912;43.270;27.942;2022-12-04T04:50:24;99480.25;;;10.42;62.09
32456;BME280;18912;43.270;27.942;2022-12-04T04:52:54;99481.97;;;10.43;61.99
32456;BME280;18912;43.270;27.942;2022-12-04T04:55:23;99486.41;;;9.79;63.92
32456;BME280;18912;43.270;27.942;2022-12-04T04:57:49;99486.22;;;10.21;63.29
32456;BME280;18912;43.270;27.942;2022-12-04T05:00:20;99487.56;;;10.33;62.59
32456;BME280;18912;43.270;27.942;2022-12-04T05:02:46;99490.22;;;10.41;62.43
32456;BME280;18912;43.270;27.942;2022-12-04T05:05:13;99489.03;;;10.52;62.02
32456;BME280;18912;43.270;27.942;2022-12-04T05:07:39;99488.16;;;10.51;61.63
32456;BME280;18912;43.270;27.942;2022-12-04T05:10:06;99490.88;;;10.51;61.70
32456;BME280;18912;43.270;27.942;2022-12-04T05:12:32;99480.75;;;10.45;61.68
32456;BME280;18912;43.270;27.942;2022-12-04T05:14:57;99489.53;;;10.39;61.58
32456;BME280;18912;43.270;27.942;2022-12-04T05:17:23;99481.00;;;10.27;62.35
32456;BME280;18912;43.270;27.942;2022-12-04T05:19:48;99485.69;;;10.33;62.48
32456;BME280;18912;43.270;27.942;2022-12-04T05:22:29;99480.25;;;10.42;62.34
32456;BME280;18912;43.270;27.942;2022-12-04T05:24:56;99488.19;;;10.43;62.32
32456;BME280;18912;43.270;27.942;2022-12-04T05:27:22;99481.09;;;10.50;62.24
32456;BME280;18912;43.270;27.942;2022-12-04T05:29:51;99488.06;;;10.37;62.60
32456;BME280;18912;43.270;27.942;2022-12-04T05:32:17;99481.13;;;10.42;62.55
32456;BME280;18912;43.270;27.942;2022-12-04T05:34:42;99481.78;;;10.36;62.39
32456;BME280;18912;43.270;27.942;2022-12-04T05:37:08;99490.75;;;10.45;62.40
32456;BME280;18912;43.270;27.942;2022-12-04T05:39:33;99496.09;;;10.53;62.37
32456;BME280;18912;43.270;27.942;2022-12-04T05:41:59;99509.13;;;10.49;62.32
32456;BME280;18912;43.270;27.942;2022-12-04T05:44:25;99496.97;;;10.53;62.41
32456;BME280;18912;43.270;27.942;2022-12-04T05:46:50;99509.28;;;10.56;62.34
32456;BME280;18912;43.270;27.942;2022-12-04T05:49:16;99509.09;;;10.65;62.33
32456;BME280;18912;43.270;27.942;2022-12-04T05:51:41;99502.81;;;10.73;62.10
32456;BME280;18912;43.270;27.942;2022-12-04T05:54:07;99509.72;;;10.75;62.09
32456;BME280;18912;43.270;27.942;2022-12-04T05:56:32;99504.66;;;10.80;62.00
32456;BME280;18912;43.270;27.942;2022-12-04T05:58:57;99517.69;;;10.77;61.90
32456;BME280;18912;43.270;27.942;2022-12-04T06:01:23;99511.44;;;10.68;62.26
32456;BME280;18912;43.270;27.942;2022-12-04T06:03:49;99511.06;;;10.79;61.93
32456;BME280;18912;43.270;27.942;2022-12-04T06:06:21;99501.56;;;10.83;61.93
32456;BME280;18912;43.270;27.942;2022-12-04T06:08:47;99505.66;;;10.79;61.99
32456;BME280;18912;43.270;27.942;2022-12-04T06:11:17;99510.66;;;10.90;61.99
32456;BME280;18912;43.270;27.942;2022-12-04T06:13:43;99505.94;;;10.92;61.89
32456;BME280;18912;43.270;27.942;2022-12-04T06:16:17;99510.63;;;10.98;61.78
32456;BME280;18912;43.270;27.942;2022-12-04T06:18:43;99514.69;;;11.02;61.75
32456;BME280;18912;43.270;27.942;2022-12-04T06:21:09;99518.25;;;11.03;61.64
32456;BME280;18912;43.270;27.942;2022-12-04T06:23:35;99524.66;;;11.02;61.82
32456;BME280;18912;43.270;27.942;2022-12-04T06:26:05;99526.19;;;10.96;62.19
32456;BME280;18912;43.270;27.942;2022-12-04T06:28:31;99531.13;;;10.93;62.08
32456;BME280;18912;43.270;27.942;2022-12-04T06:31:04;99525.03;;;10.91;61.78
32456;BME280;18912;43.270;27.942;2022-12-04T06:33:30;99537.09;;;10.88;61.74
32456;BME280;18912;43.270;27.942;2022-12-04T06:38:24;99525.59;;;10.86;61.77
32456;BME280;18912;43.270;27.942;2022-12-04T06:40:50;99523.22;;;10.83;61.81
32456;BME280;18912;43.270;27.942;2022-12-04T06:43:15;99536.75;;;10.75;61.97
32456;BME280;18912;43.270;27.942;2022-12-04T06:45:41;99538.09;;;10.79;61.60
32456;BME280;18912;43.270;27.942;2022-12-04T06:48:06;99537.09;;;10.80;61.83
32456;BME280;18912;43.270;27.942;2022-12-04T06:50:32;99527.97;;;10.81;61.83
32456;BME280;18912;43.270;27.942;2022-12-04T06:52:57;99518.97;;;10.89;61.87
32456;BME280;18912;43.270;27.942;2022-12-04T06:55:22;99528.13;;;10.88;62.11
32456;BME280;18912;43.270;27.942;2022-12-04T06:57:48;99524.19;;;10.90;62.19
32456;BME280;18912;43.270;27.942;2022-12-04T07:00:14;99534.31;;;10.96;62.18
32456;BME280;18912;43.270;27.942;2022-12-04T07:02:39;99527.97;;;10.81;62.60
32456;BME280;18912;43.270;27.942;2022-12-04T07:05:05;99526.28;;;10.80;63.30
32456;BME280;18912;43.270;27.942;2022-12-04T07:07:31;99528.09;;;10.96;62.86
32456;BME280;18912;43.270;27.942;2022-12-04T07:09:56;99527.22;;;11.03;62.87
32456;BME280;18912;43.270;27.942;2022-12-04T07:12:22;99514.66;;;11.10;62.59
32456;BME280;18912;43.270;27.942;2022-12-04T07:14:47;99520.31;;;11.23;62.50
32456;BME280;18912;43.270;27.942;2022-12-04T07:17:13;99518.28;;;11.25;62.44
32456;BME280;18912;43.270;27.942;2022-12-04T07:19:38;99523.41;;;11.20;62.47
32456;BME280;18912;43.270;27.942;2022-12-04T07:22:05;99518.28;;;11.25;62.58
32456;BME280;18912;43.270;27.942;2022-12-04T07:24:34;99521.91;;;11.41;62.50
32456;BME280;18912;43.270;27.942;2022-12-04T07:26:59;99528.00;;;11.43;62.23
32456;BME280;18912;43.270;27.942;2022-12-04T07:29:25;99534.09;;;11.45;62.36
32456;BME280;18912;43.270;27.942;2022-12-04T07:31:50;99534.38;;;11.50;62.47
32456;BME280;18912;43.270;27.942;2022-12-04T07:34:16;99537.41;;;11.55;62.52
32456;BME280;18912;43.270;27.942;2022-12-04T07:36:41;99540.72;;;11.65;62.32
32456;BME280;18912;43.270;27.942;2022-12-04T07:39:06;99543.94;;;11.68;62.41
32456;BME280;18912;43.270;27.942;2022-12-04T07:41:32;99538.13;;;11.79;62.22
32456;BME280;18912;43.270;27.942;2022-12-04T07:43:57;99531.47;;;11.82;62.09
32456;BME280;18912;43.270;27.942;2022-12-04T07:46:25;99535.50;;;11.86;62.05
32456;BME280;18912;43.270;27.942;2022-12-04T07:48:51;99540.59;;;11.89;62.07
32456;BME280;18912;43.270;27.942;2022-12-04T07:51:19;99547.50;;;11.91;61.78
32456;BME280;18912;43.270;27.942;2022-12-04T07:53:45;99548.22;;;11.85;61.93
32456;BME280;18912;43.270;27.942;2022-12-04T07:56:11;99546.16;;;11.87;61.86
32456;BME280;18912;43.270;27.942;2022-12-04T07:58:38;99540.94;;;11.86;62.21
32456;BME280;18912;43.270;27.942;2022-12-04T08:01:13;99545.44;;;11.71;62.19
32456;BME280;18912;43.270;27.942;2022-12-04T08:03:40;99546.13;;;11.73;62.51
32456;BME280;18912;43.270;27.942;2022-12-04T08:06:06;99548.16;;;11.93;62.15
32456;BME280;18912;43.270;27.942;2022-12-04T08:08:33;99547.72;;;12.04;62.09
32456;BME280;18912;43.270;27.942;2022-12-04T08:10:59;99546.28;;;11.94;62.40
32456;BME280;18912;43.270;27.942;2022-12-04T08:13:24;99549.13;;;12.00;62.42
32456;BME280;18912;43.270;27.942;2022-12-04T08:15:50;99548.44;;;11.76;63.36
32456;BME280;18912;43.270;27.942;2022-12-04T08:18:16;99548.41;;;11.84;63.12
32456;BME280;18912;43.270;27.942;2022-12-04T08:20:42;99543.63;;;12.08;62.50
32456;BME280;18912;43.270;27.942;2022-12-04T08:23:07;99540.16;;;12.00;62.80
32456;BME280;18912;43.270;27.942;2022-12-04T08:25:33;99531.59;;;12.11;62.85
32456;BME280;18912;43.270;27.942;2022-12-04T08:27:58;99532.13;;;12.06;63.07
32456;BME280;18912;43.270;27.942;2022-12-04T08:30:24;99531.78;;;11.87;64.58
32456;BME280;18912;43.270;27.942;2022-12-04T08:32:49;99529.66;;;11.74;66.02
32456;BME280;18912;43.270;27.942;2022-12-04T08:35:15;99522.69;;;11.80;66.56
32456;BME280;18912;43.270;27.942;2022-12-04T08:37:40;99517.03;;;11.67;67.55
32456;BME280;18912;43.270;27.942;2022-12-04T08:40:06;99523.88;;;11.55;68.04
32456;BME280;18912;43.270;27.942;2022-12-04T08:42:32;99519.56;;;11.68;68.21
32456;BME280;18912;43.270;27.942;2022-12-04T08:44:57;99511.13;;;11.86;67.76
32456;BME280;18912;43.270;27.942;2022-12-04T08:47:23;99524.38;;;11.81;67.97
32456;BME280;18912;43.270;27.942;2022-12-04T08:49:48;99523.56;;;11.95;67.82
32456;BME280;18912;43.270;27.942;2022-12-04T08:52:13;99526.63;;;12.14;67.08
32456;BME280;18912;43.270;27.942;2022-12-04T08:54:39;99516.44;;;12.02;67.38
32456;BME280;18912;43.270;27.942;2022-12-04T08:57:05;99518.31;;;12.16;67.31
32456;BME280;18912;43.270;27.942;2022-12-04T08:59:30;99516.84;;;12.28;67.10
32456;BME280;18912;43.270;27.942;2022-12-04T09:01:56;99515.59;;;12.16;67.70
32456;BME280;18912;43.270;27.942;2022-12-04T09:04:21;99509.97;;;12.40;66.97
32456;BME280;18912;43.270;27.942;2022-12-04T09:06:47;99509.00;;;12.33;67.07
32456;BME280;18912;43.270;27.942;2022-12-04T09:09:12;99500.97;;;12.54;66.60
32456;BME280;18912;43.270;27.942;2022-12-04T09:11:38;99485.44;;;12.19;67.61
32456;BME280;18912;43.270;27.942;2022-12-04T09:14:03;99498.53;;;12.30;67.55
32456;BME280;18912;43.270;27.942;2022-12-04T09:16:29;99497.72;;;12.07;68.08
32456;BME280;18912;43.270;27.942;2022-12-04T09:18:55;99497.78;;;12.36;67.38
32456;BME280;18912;43.270;27.942;2022-12-04T09:21:22;99484.97;;;12.45;67.08
32456;BME280;18912;43.270;27.942;2022-12-04T09:23:48;99484.78;;;12.32;67.38
32456;BME280;18912;43.270;27.942;2022-12-04T09:26:18;99489.31;;;12.02;68.48
32456;BME280;18912;43.270;27.942;2022-12-04T09:28:45;99489.56;;;12.30;67.67
32456;BME280;18912;43.270;27.942;2022-12-04T09:31:10;99488.88;;;12.13;68.40
32456;BME280;18912;43.270;27.942;2022-12-04T09:33:36;99485.16;;;12.29;67.83
32456;BME280;18912;43.270;27.942;2022-12-04T09:36:02;99479.84;;;12.50;67.31
32456;BME280;18912;43.270;27.942;2022-12-04T09:38:28;99478.97;;;12.20;67.86
32456;BME280;18912;43.270;27.942;2022-12-04T09:41:01;99477.81;;;12.52;66.53
32456;BME280;18912;43.270;27.942;2022-12-04T09:46:25;99463.88;;;12.40;67.53
32456;BME280;18912;43.270;27.942;2022-12-04T09:48:52;99458.63;;;12.53;67.31
32456;BME280;18912;43.270;27.942;2022-12-04T09:51:22;99460.09;;;12.56;66.97
32456;BME280;18912;43.270;27.942;2022-12-04T09:53:55;99454.41;;;12.51;67.04
32456;BME280;18912;43.270;27.942;2022-12-04T09:56:24;99458.50;;;12.76;66.20
32456;BME280;18912;43.270;27.942;2022-12-04T09:59:12;99461.59;;;12.87;65.73
32456;BME280;18912;43.270;27.942;2022-12-04T10:04:29;99450.03;;;13.00;65.04
32456;BME280;18912;43.270;27.942;2022-12-04T10:07:11;99454.19;;;12.81;65.72
32456;BME280;18912;43.270;27.942;2022-12-04T10:12:46;99448.19;;;13.00;64.62
32456;BME280;18912;43.270;27.942;2022-12-04T10:26:10;99434.44;;;12.87;65.49
32456;BME280;18912;43.270;27.942;2022-12-04T10:28:47;99440.22;;;12.99;65.19
32456;BME280;18912;43.270;27.942;2022-12-04T10:31:15;99436.75;;;13.05;64.85
32456;BME280;18912;43.270;27.942;2022-12-04T10:33:43;99435.13;;;12.60;65.66
32456;BME280;18912;43.270;27.942;2022-12-04T10:36:17;99438.94;;;12.80;65.15
32456;BME280;18912;43.270;27.942;2022-12-04T10:38:54;99431.56;;;12.74;65.16
32456;BME280;18912;43.270;27.942;2022-12-04T10:42:13;99432.91;;;12.49;65.63
32456;BME280;18912;43.270;27.942;2022-12-04T10:44:14;99424.28;;;12.31;67.02
32456;BME280;18912;43.270;27.942;2022-12-04T10:46:41;99424.47;;;12.44;66.53
32456;BME280;18912;43.270;27.942;2022-12-04T10:51:44;99419.78;;;12.23;67.18
32456;BME280;18912;43.270;27.942;2022-12-04T10:54:33;99417.19;;;12.59;66.37
32456;BME280;18912;43.270;27.942;2022-12-04T10:57:00;99413.81;;;12.57;66.02
32456;BME280;18912;43.270;27.942;2022-12-04T10:59:26;99407.84;;;12.47;66.54
32456;BME280;18912;43.270;27.942;2022-12-04T11:05:04;99410.63;;;12.68;65.88
32456;BME280;18912;43.270;27.942;2022-12-04T11:07:35;99405.56;;;12.65;66.44
32456;BME280;18912;43.270;27.942;2022-12-04T11:10:16;99415.09;;;12.76;66.07
32456;BME280;18912;43.270;27.942;2022-12-04T11:13:02;99403.25;;;12.48;66.19
32456;BME280;18912;43.270;27.942;2022-12-04T11:15:29;99399.47;;;12.78;65.75
32456;BME280;18912;43.270;27.942;2022-12-04T11:18:05;99400.28;;;12.78;65.20
32456;BME280;18912;43.270;27.942;2022-12-04T11:20:30;99400.28;;;12.93;64.51
32456;BME280;18912;43.270;27.942;2022-12-04T11:22:57;99400.44;;;12.70;65.36
32456;BME280;18912;43.270;27.942;2022-12-04T11:25:36;99389.63;;;12.91;65.19
32456;BME280;18912;43.270;27.942;2022-12-04T11:28:03;99387.41;;;13.01;64.41
32456;BME280;18912;43.270;27.942;2022-12-04T11:30:33;99400.78;;;13.18;64.23
32456;BME280;18912;43.270;27.942;2022-12-04T11:32:59;99390.59;;;12.69;65.09
32456;BME280;18912;43.270;27.942;2022-12-04T11:35:28;99390.72;;;12.97;65.02
32456;BME280;18912;43.270;27.942;2022-12-04T11:38:12;99392.75;;;13.09;64.49
32456;BME280;18912;43.270;27.942;2022-12-04T11:40:44;99399.81;;;13.04;64.58
32456;BME280;18912;43.270;27.942;2022-12-04T11:43:12;99398.78;;;12.90;65.04
32456;BME280;18912;43.270;27.942;2022-12-04T11:45:41;99392.00;;;13.16;64.22
32456;BME280;18912;43.270;27.942;2022-12-04T11:48:17;99396.13;;;13.11;64.24
32456;BME280;18912;43.270;27.942;2022-12-04T11:53:41;99386.63;;;12.36;66.52
32456;BME280;18912;43.270;27.942;2022-12-04T12:10:18;99383.03;;;12.50;66.02
32456;BME280;18912;43.270;27.942;2022-12-04T12:13:08;99380.69;;;12.62;65.84
32456;BME280;18912;43.270;27.942;2022-12-04T12:24:29;99375.28;;;12.47;66.29
32456;BME280;18912;43.270;27.942;2022-12-04T12:27:19;99377.75;;;12.42;66.71
32456;BME280;18912;43.270;27.942;2022-12-04T12:30:13;99371.75;;;12.03;67.89
32456;BME280;18912;43.270;27.942;2022-12-04T12:35:40;99378.38;;;12.44;66.66
32456;BME280;18912;43.270;27.942;2022-12-04T12:38:20;99376.53;;;12.15;67.31
32456;BME280;18912;43.270;27.942;2022-12-04T12:40:56;99373.53;;;12.40;66.74
32456;BME280;18912;43.270;27.942;2022-12-04T12:43:47;99383.53;;;12.39;66.32
32456;BME280;18912;43.270;27.942;2022-12-04T12:49:04;99379.41;;;12.43;65.94
32456;BME280;18912;43.270;27.942;2022-12-04T12:51:37;99380.53;;;12.34;66.35
32456;BME280;18912;43.270;27.942;2022-12-04T12:54:27;99378.94;;;12.10;67.05
32456;BME280;18912;43.270;27.942;2022-12-04T12:57:17;99373.06;;;12.36;66.28
32456;BME280;18912;43.270;27.942;2022-12-04T12:59:53;99371.66;;;12.11;66.64
32456;BME280;18912;43.270;27.942;2022-12-04T13:02:28;99370.56;;;12.35;66.46
32456;BME280;18912;43.270;27.942;2022-12-04T13:04:59;99368.38;;;11.86;67.74
32456;BME280;18912;43.270;27.942;2022-12-04T13:07:51;99366.44;;;12.09;67.60
32456;BME280;18912;43.270;27.942;2022-12-04T13:10:42;99362.50;;;11.97;67.60
32456;BME280;18912;43.270;27.942;2022-12-04T13:13:19;99365.00;;;11.99;68.19
32456;BME280;18912;43.270;27.942;2022-12-04T13:15:51;99361.75;;;11.89;68.25
32456;BME280;18912;43.270;27.942;2022-12-04T13:18:30;99367.56;;;12.15;67.74
32456;BME280;18912;43.270;27.942;2022-12-04T13:21:03;99377.25;;;11.95;68.05
32456;BME280;18912;43.270;27.942;2022-12-04T13:23:46;99367.63;;;12.07;67.33
32456;BME280;18912;43.270;27.942;2022-12-04T13:26:45;99378.56;;;11.99;67.92
32456;BME280;18912;43.270;27.942;2022-12-04T13:29:17;99376.44;;;11.94;67.60
32456;BME280;18912;43.270;27.942;2022-12-04T13:42:33;99371.72;;;11.74;68.26
32456;BME280;18912;43.270;27.942;2022-12-04T13:45:05;99369.41;;;11.63;68.13
32456;BME280;18912;43.270;27.942;2022-12-04T13:47:33;99363.06;;;11.56;68.70
32456;BME280;18912;43.270;27.942;2022-12-04T13:50:24;99371.31;;;11.62;68.63
32456;BME280;18912;43.270;27.942;2022-12-04T13:52:51;99364.63;;;11.73;68.17
32456;BME280;18912;43.270;27.942;2022-12-04T13:55:36;99371.38;;;12.06;67.24
32456;BME280;18912;43.270;27.942;2022-12-04T13:58:25;99373.88;;;11.78;67.65
32456;BME280;18912;43.270;27.942;2022-12-04T14:01:45;99377.09;;;11.96;67.39
32456;BME280;18912;43.270;27.942;2022-12-04T14:03:49;99372.75;;;11.87;66.92
32456;BME280;18912;43.270;27.942;2022-12-04T14:06:33;99370.88;;;11.73;68.10
32456;BME280;18912;43.270;27.942;2022-12-04T14:09:02;99368.56;;;11.85;67.53
32456;BME280;18912;43.270;27.942;2022-12-04T14:11:33;99376.97;;;11.90;67.24
32456;BME280;18912;43.270;27.942;2022-12-04T14:14:06;99377.44;;;11.79;67.74
32456;BME280;18912;43.270;27.942;2022-12-04T14:16:46;99379.75;;;11.45;68.80
32456;BME280;18912;43.270;27.942;2022-12-04T14:19:26;99383.78;;;11.49;68.85
32456;BME280;18912;43.270;27.942;2022-12-04T14:21:54;99388.72;;;11.45;69.03
32456;BME280;18912;43.270;27.942;2022-12-04T14:24:30;99383.28;;;11.68;68.37
32456;BME280;18912;43.270;27.942;2022-12-04T14:26:56;99375.88;;;11.62;68.15
32456;BME280;18912;43.270;27.942;2022-12-04T14:32:08;99383.19;;;11.39;68.34
32456;BME280;18912;43.270;27.942;2022-12-04T14:34:35;99376.63;;;11.33;68.84
32456;BME280;18912;43.270;27.942;2022-12-04T14:37:02;99376.78;;;11.54;68.43
32456;BME280;18912;43.270;27.942;2022-12-04T14:39:33;99374.13;;;11.69;68.36
32456;BME280;18912;43.270;27.942;2022-12-04T14:42:06;99377.50;;;11.71;68.22
32456;BME280;18912;43.270;27.942;2022-12-04T14:44:37;99380.34;;;11.92;67.49
32456;BME280;18912;43.270;27.942;2022-12-04T14:47:30;99381.97;;;12.15;66.22
32456;BME280;18912;43.270;27.942;2022-12-04T14:52:38;99370.69;;;11.38;68.44
32456;BME280;18912;43.270;27.942;2022-12-04T14:57:58;99369.19;;;11.50;68.93
32456;BME280;18912;43.270;27.942;2022-12-04T15:00:24;99375.84;;;11.24;69.25